createdAt,value
2019-01-23T00:00:34.786Z,69.58
2019-01-23T00:03:03.134Z,67.15
2019-01-23T00:05:31.409Z,66.32
2019-01-23T00:07:59.788Z,65.96
2019-01-23T00:10:28.124Z,64.54
2019-01-23T00:12:56.394Z,64.23
2019-01-23T00:15:24.710Z,64.17
2019-01-23T00:17:54.856Z,64.33
2019-01-23T00:20:23.145Z,63.79
2019-01-23T00:22:51.446Z,63.01
2019-01-23T00:25:19.792Z,63.64
2019-01-23T00:27:48.070Z,63.89
2019-01-23T00:30:16.376Z,66.36
2019-01-23T00:32:44.660Z,65.33
2019-01-23T00:35:12.935Z,65.05
2019-01-23T00:37:41.308Z,64.42
2019-01-23T00:40:15.545Z,64.32
2019-01-23T00:42:43.821Z,64.07
2019-01-23T00:45:14.634Z,64.21
2019-01-23T00:47:42.908Z,64.63
2019-01-23T00:50:13.020Z,69.59
2019-01-23T00:52:41.326Z,67.50
2019-01-23T00:55:12.336Z,66.68
2019-01-23T00:57:40.611Z,65.79
2019-01-23T01:00:12.251Z,66.67
2019-01-23T01:02:40.593Z,65.57
2019-01-23T01:05:08.950Z,64.35
2019-01-23T01:07:37.233Z,64.31
2019-01-23T01:10:08.768Z,64.25
2019-01-23T01:12:37.043Z,64.19
2019-01-23T01:15:13.083Z,64.82
2019-01-23T01:17:37.395Z,64.69
2019-01-23T01:20:09.166Z,63.70
2019-01-23T01:22:37.468Z,63.84
2019-01-23T01:25:12.092Z,64.39
2019-01-23T01:27:40.368Z,63.45
2019-01-23T01:30:17.275Z,63.04
2019-01-23T01:32:45.564Z,63.84
2019-01-23T01:35:13.831Z,65.09
2019-01-23T01:37:42.136Z,64.23
2019-01-23T01:40:13.111Z,64.12
2019-01-23T01:42:41.383Z,63.16
2019-01-23T01:45:10.634Z,62.85
2019-01-23T01:47:38.912Z,62.62
2019-01-23T01:50:17.754Z,62.49
2019-01-23T01:52:46.096Z,63.49
2019-01-23T01:55:14.442Z,63.68
2019-01-23T01:57:42.754Z,63.35
2019-01-23T02:00:22.223Z,66.03
2019-01-23T02:02:50.529Z,64.34
2019-01-23T02:05:18.877Z,64.80
2019-01-23T02:07:47.146Z,65.16
2019-01-23T02:10:19.649Z,64.02
2019-01-23T02:12:48.261Z,65.42
2019-01-23T02:15:17.459Z,64.90
2019-01-23T02:17:45.837Z,63.15
2019-01-23T02:20:17.151Z,63.26
2019-01-23T02:22:45.417Z,64.79
2019-01-23T02:25:13.957Z,65.21
2019-01-23T02:27:43.192Z,66.12
2019-01-23T02:30:14.934Z,66.68
2019-01-23T02:32:43.245Z,64.47
2019-01-23T02:35:36.165Z,64.28
2019-01-23T02:38:04.468Z,64.76
2019-01-23T02:40:32.806Z,63.75
2019-01-23T02:43:01.920Z,63.86
2019-01-23T02:45:30.227Z,64.31
2019-01-23T02:47:58.503Z,63.99
2019-01-23T02:50:26.851Z,62.94
2019-01-23T02:52:55.149Z,63.19
2019-01-23T02:55:23.424Z,63.38
2019-01-23T02:57:51.706Z,64.42
2019-01-23T03:00:20.091Z,64.02
2019-01-23T03:02:48.569Z,63.45
2019-01-23T03:05:18.288Z,63.83
2019-01-23T03:07:46.588Z,63.40
2019-01-23T03:10:16.977Z,62.37
2019-01-23T03:12:45.240Z,61.93
2019-01-23T03:15:15.206Z,61.66
2019-01-23T03:17:43.485Z,61.90
2019-01-23T03:20:13.691Z,62.76
2019-01-23T03:22:42.002Z,62.24
2019-01-23T03:25:11.520Z,62.63
2019-01-23T03:27:39.790Z,62.25
2019-01-23T03:30:11.361Z,62.38
2019-01-23T03:32:39.620Z,63.49
2019-01-23T03:35:09.426Z,63.45
2019-01-23T03:37:37.737Z,63.93
2019-01-23T03:40:11.248Z,64.17
2019-01-23T03:42:39.516Z,65.44
2019-01-23T03:45:10.620Z,64.77
2019-01-23T03:47:38.970Z,64.01
2019-01-23T03:50:15.326Z,63.91
2019-01-23T03:52:43.687Z,64.00
2019-01-23T03:55:13.298Z,63.44
2019-01-23T03:57:41.598Z,64.55
2019-01-23T04:00:20.421Z,65.57
2019-01-23T04:02:49.564Z,65.46
2019-01-23T04:05:17.839Z,65.50
2019-01-23T04:07:46.112Z,66.49
2019-01-23T04:10:15.662Z,65.78
2019-01-23T04:12:44.011Z,67.26
2019-01-23T04:15:16.836Z,66.54
2019-01-23T04:17:45.292Z,67.22
2019-01-23T04:20:19.161Z,66.30
2019-01-23T04:22:47.441Z,66.80
2019-01-23T04:25:15.837Z,65.65
2019-01-23T04:27:44.186Z,65.42
2019-01-23T04:30:20.667Z,67.29
2019-01-23T04:32:48.945Z,68.21
2019-01-23T04:35:17.211Z,69.61
2019-01-23T04:37:45.664Z,69.15
2019-01-23T04:40:14.491Z,68.20
2019-01-23T04:42:42.833Z,67.54
2019-01-23T04:45:13.192Z,69.91
2019-01-23T04:47:42.335Z,68.63
2019-01-23T04:50:12.371Z,67.79
2019-01-23T04:52:57.086Z,66.96
2019-01-23T04:55:25.429Z,66.36
2019-01-23T04:57:53.705Z,66.43
2019-01-23T05:00:23.694Z,65.29
2019-01-23T05:02:51.970Z,65.11
2019-01-23T05:05:20.319Z,65.69
2019-01-23T05:07:48.642Z,67.39
2019-01-23T05:10:16.911Z,66.34
2019-01-23T05:12:45.190Z,66.58
2019-01-23T05:15:13.637Z,66.82
2019-01-23T05:17:41.913Z,66.32
2019-01-23T05:20:12.633Z,65.52
2019-01-23T05:22:41.017Z,65.79
2019-01-23T05:25:09.292Z,64.90
2019-01-23T05:27:38.318Z,65.24
2019-01-23T05:30:15.555Z,65.49
2019-01-23T05:32:43.833Z,66.10
2019-01-23T05:35:12.109Z,66.45
2019-01-23T05:37:40.429Z,66.56
2019-01-23T05:40:09.352Z,65.59
2019-01-23T05:42:37.632Z,67.47
2019-01-23T05:45:08.382Z,67.37
2019-01-23T05:47:36.656Z,66.33
2019-01-23T05:50:08.261Z,67.45
2019-01-23T05:52:36.575Z,67.36
2019-01-23T05:55:06.989Z,65.72
2019-01-23T05:57:35.276Z,66.23
2019-01-23T06:00:05.097Z,66.59
2019-01-23T06:02:33.373Z,66.29
2019-01-23T06:05:01.800Z,68.45
2019-01-23T06:07:30.201Z,67.56
2019-01-23T06:09:58.493Z,69.75
2019-01-23T06:12:26.770Z,68.69
2019-01-23T06:14:55.147Z,68.33
2019-01-23T06:17:23.426Z,67.84
2019-01-23T06:19:51.705Z,67.49
2019-01-23T06:22:20.018Z,67.92
2019-01-23T06:24:48.287Z,68.94
2019-01-23T06:27:16.633Z,70.05
2019-01-23T06:29:44.937Z,68.61
2019-01-23T06:32:13.219Z,68.80
2019-01-23T06:34:41.491Z,68.76
2019-01-23T06:37:09.815Z,66.99
2019-01-23T06:39:38.167Z,67.07
2019-01-23T06:42:06.457Z,68.27
2019-01-23T06:44:34.757Z,68.25
2019-01-23T06:47:03.037Z,66.83
2019-01-23T06:49:31.314Z,66.29
2019-01-23T06:52:00.462Z,67.35
2019-01-23T06:54:28.743Z,68.20
2019-01-23T06:56:57.029Z,67.27
2019-01-23T06:59:25.331Z,67.38
2019-01-23T07:01:53.677Z,69.24
2019-01-23T07:04:21.952Z,69.27
2019-01-23T07:06:50.280Z,71.52
2019-01-23T07:09:18.546Z,70.51
2019-01-23T07:11:46.820Z,68.79
2019-01-23T07:14:15.198Z,68.46
2019-01-23T07:16:43.478Z,67.17
2019-01-23T07:19:11.743Z,66.75
2019-01-23T07:21:40.060Z,67.06
2019-01-23T07:24:08.336Z,67.88
2019-01-23T07:26:36.613Z,67.25
2019-01-23T07:29:04.991Z,67.17
2019-01-23T07:31:33.268Z,67.80
2019-01-23T07:34:01.546Z,69.26
2019-01-23T07:36:29.880Z,69.77
2019-01-23T07:38:58.224Z,69.16
2019-01-23T07:41:26.508Z,68.67
2019-01-23T07:43:54.818Z,68.31
2019-01-23T07:46:23.099Z,68.35
2019-01-23T07:48:51.398Z,67.40
2019-01-23T07:51:19.726Z,69.40
2019-01-23T07:53:48.849Z,68.44
2019-01-23T07:56:17.199Z,69.41
2019-01-23T07:58:45.513Z,68.51
2019-01-23T08:01:13.805Z,68.06
2019-01-23T08:03:42.087Z,69.34
2019-01-23T08:06:10.396Z,67.98
2019-01-23T08:08:38.675Z,66.84
2019-01-23T08:11:06.950Z,67.38
2019-01-23T08:13:35.266Z,66.59
2019-01-23T08:16:03.621Z,66.61
2019-01-23T08:18:31.908Z,66.30
2019-01-23T08:21:00.234Z,65.87
2019-01-23T08:23:28.514Z,65.29
2019-01-23T08:25:56.866Z,64.83
2019-01-23T08:28:25.175Z,64.36
2019-01-23T08:30:53.521Z,64.44
2019-01-23T08:33:21.797Z,64.67
2019-01-23T08:35:50.110Z,66.11
2019-01-23T08:38:18.397Z,67.18
2019-01-23T08:40:46.673Z,68.07
2019-01-23T08:43:14.989Z,68.34
2019-01-23T08:45:43.277Z,68.98
2019-01-23T08:48:11.636Z,68.19
2019-01-23T08:50:40.789Z,65.85
2019-01-23T08:53:09.072Z,65.85
2019-01-23T08:55:38.210Z,64.40
2019-01-23T08:58:06.708Z,64.01
2019-01-23T09:00:34.997Z,64.01
2019-01-23T09:03:03.267Z,65.56
2019-01-23T09:05:31.612Z,65.88
2019-01-23T09:07:59.847Z,63.97
2019-01-23T09:10:29.365Z,64.73
2019-01-23T09:12:57.687Z,64.33
2019-01-23T09:15:25.971Z,63.63
2019-01-23T09:17:54.251Z,63.63
2019-01-23T09:20:23.038Z,62.22
2019-01-23T09:22:51.316Z,66.39
2019-01-23T09:25:24.659Z,64.35
2019-01-23T09:27:52.978Z,63.02
2019-01-23T09:30:30.073Z,63.38
2019-01-23T09:33:19.885Z,62.15
2019-01-23T09:36:12.402Z,62.15
2019-01-23T09:39:01.652Z,64.26
2019-01-23T09:41:49.564Z,62.66
2019-01-23T09:44:49.603Z,62.82
2019-01-23T09:47:36.178Z,62.87
2019-01-23T09:50:19.393Z,62.16
2019-01-23T09:53:05.872Z,62.16
2019-01-23T09:55:34.258Z,64.60
2019-01-23T09:58:03.392Z,64.60
2019-01-23T10:00:32.104Z,63.83
2019-01-23T10:03:00.428Z,61.73
2019-01-23T10:05:28.916Z,62.50
2019-01-23T10:07:57.184Z,60.96
2019-01-23T10:10:25.568Z,62.22
2019-01-23T10:12:53.839Z,64.10
2019-01-23T10:15:27.997Z,62.59
2019-01-23T10:17:56.321Z,62.59
2019-01-23T10:20:24.666Z,61.26
2019-01-23T10:22:53.013Z,62.74
2019-01-23T10:25:21.456Z,62.74
2019-01-23T10:27:49.796Z,62.68
2019-01-23T10:30:18.076Z,60.05
2019-01-23T10:32:46.395Z,58.16
2019-01-23T10:35:17.731Z,58.16
2019-01-23T10:37:46.070Z,60.76
2019-01-23T10:40:16.530Z,59.37
2019-01-23T10:42:44.863Z,59.37
2019-01-23T10:45:16.068Z,59.95
2019-01-23T10:47:44.697Z,59.60
2019-01-23T10:50:16.828Z,60.22
2019-01-23T10:52:45.177Z,60.69
2019-01-23T10:55:13.628Z,60.33
2019-01-23T10:57:41.963Z,60.44
2019-01-23T11:00:16.899Z,58.46
2019-01-23T11:02:45.276Z,57.72
2019-01-23T11:05:16.623Z,58.78
2019-01-23T11:07:44.899Z,57.70
2019-01-23T11:10:16.142Z,57.58
2019-01-23T11:12:44.623Z,58.04
2019-01-23T11:15:13.308Z,56.88
2019-01-23T11:17:41.818Z,56.24
2019-01-23T11:20:13.365Z,59.31
2019-01-23T11:22:41.711Z,58.23
2019-01-23T11:25:12.055Z,58.23
2019-01-23T11:27:40.537Z,58.76
2019-01-23T11:30:14.812Z,59.22
2019-01-23T11:32:43.390Z,59.22
2019-01-23T11:35:11.739Z,60.72
2019-01-23T11:37:40.086Z,59.92
2019-01-23T11:40:20.640Z,58.45
2019-01-23T11:42:48.927Z,60.42
2019-01-23T11:45:17.396Z,59.93
2019-01-23T11:47:45.837Z,60.09
2019-01-23T11:50:21.770Z,59.45
2019-01-23T11:52:47.621Z,58.46
2019-01-23T11:55:16.126Z,60.28
2019-01-23T11:57:44.465Z,59.06
2019-01-23T12:00:22.923Z,57.35
2019-01-23T12:02:51.193Z,56.62
2019-01-23T12:05:20.978Z,57.33
2019-01-23T12:07:49.348Z,59.84
2019-01-23T12:10:20.297Z,58.65
2019-01-23T12:12:48.566Z,57.37
2019-01-23T12:15:18.797Z,56.47
2019-01-23T12:17:47.075Z,55.85
2019-01-23T12:20:15.560Z,55.85
2019-01-23T12:22:43.880Z,57.73
2019-01-23T12:25:12.899Z,58.72
2019-01-23T12:27:41.386Z,56.20
2019-01-23T12:30:15.527Z,56.56
2019-01-23T12:32:44.004Z,57.47
2019-01-23T12:35:12.271Z,55.89
2019-01-23T12:37:40.797Z,55.89
2019-01-23T12:40:14.462Z,55.22
2019-01-23T12:42:42.813Z,55.81
2019-01-23T12:45:14.638Z,55.41
2019-01-23T12:47:42.915Z,55.88
2019-01-23T12:50:14.207Z,57.56
2019-01-23T12:52:42.547Z,57.34
2019-01-23T12:55:11.022Z,58.68
2019-01-23T12:57:39.304Z,59.49
2019-01-23T13:00:13.731Z,58.71
2019-01-23T13:02:42.208Z,56.15
2019-01-23T13:05:12.685Z,56.15
2019-01-23T13:07:41.217Z,57.19
2019-01-23T13:10:12.759Z,56.33
2019-01-23T13:12:41.258Z,56.27
2019-01-23T13:15:12.982Z,55.96
2019-01-23T13:17:41.474Z,55.03
2019-01-23T13:20:12.768Z,54.88
2019-01-23T13:22:41.296Z,55.77
2019-01-23T13:25:17.720Z,56.79
2019-01-23T13:27:46.243Z,56.79
2019-01-23T13:30:17.332Z,56.64
2019-01-23T13:32:45.823Z,58.94
2019-01-23T13:35:23.388Z,57.92
2019-01-23T13:37:51.870Z,57.92
2019-01-23T13:40:26.076Z,57.33
2019-01-23T13:42:54.603Z,55.95
2019-01-23T13:45:23.079Z,57.23
2019-01-23T13:47:51.559Z,56.93
2019-01-23T13:50:20.073Z,56.24
2019-01-23T13:52:48.569Z,56.45
2019-01-23T13:55:21.956Z,56.13
2019-01-23T13:57:50.484Z,57.99
2019-01-23T14:00:38.225Z,56.72
2019-01-23T14:03:07.049Z,56.72
2019-01-23T14:05:35.540Z,56.62
2019-01-23T14:08:04.258Z,57.22
2019-01-23T14:10:32.753Z,58.16
2019-01-23T14:13:01.240Z,57.28
2019-01-23T14:15:37.294Z,57.28
2019-01-23T14:18:06.174Z,56.30
2019-01-23T14:20:34.762Z,57.91
2019-01-23T14:23:03.279Z,57.91
2019-01-23T14:25:31.771Z,57.34
2019-01-23T14:28:00.261Z,58.79
2019-01-23T14:30:37.132Z,57.38
2019-01-23T14:33:05.613Z,59.26
2019-01-23T14:35:35.102Z,58.19
2019-01-23T14:38:03.606Z,57.59
2019-01-23T14:40:32.091Z,57.82
2019-01-23T14:43:00.582Z,58.45
2019-01-23T14:45:29.118Z,58.95
2019-01-23T14:47:57.597Z,59.76
2019-01-23T14:50:26.085Z,59.62
2019-01-23T14:52:54.605Z,60.51
2019-01-23T14:55:23.085Z,60.59
2019-01-23T14:57:51.572Z,60.31
2019-01-23T15:00:28.158Z,61.13
2019-01-23T15:02:56.644Z,61.13
2019-01-23T15:05:25.968Z,61.91
2019-01-23T15:07:54.480Z,61.51
2019-01-23T15:10:25.418Z,63.90
2019-01-23T15:12:53.905Z,63.05
2019-01-23T15:15:22.430Z,65.32
2019-01-23T15:17:51.010Z,65.38
2019-01-23T15:20:25.104Z,64.41
2019-01-23T15:22:53.624Z,66.28
2019-01-23T15:25:22.107Z,65.42
2019-01-23T15:27:50.594Z,65.08
2019-01-23T15:30:21.111Z,64.29
2019-01-23T15:32:49.603Z,63.61
2019-01-23T15:35:18.917Z,64.13
2019-01-23T15:37:47.429Z,64.13
2019-01-23T15:40:18.677Z,64.10
2019-01-23T15:42:47.166Z,64.51
2019-01-23T15:45:15.690Z,63.85
2019-01-23T15:47:44.185Z,63.61
2019-01-23T15:50:18.633Z,63.95
2019-01-23T15:52:47.159Z,63.55
2019-01-23T15:55:18.306Z,64.05
2019-01-23T15:57:46.790Z,65.56
2019-01-23T16:00:18.425Z,65.54
2019-01-23T16:02:48.538Z,64.54
2019-01-23T16:05:17.070Z,64.64
2019-01-23T16:07:46.469Z,65.66
2019-01-23T16:10:22.157Z,65.23
2019-01-23T16:12:50.664Z,64.32
2019-01-23T16:15:21.253Z,65.40
2019-01-23T16:17:49.728Z,66.29
2019-01-23T16:20:18.245Z,66.40
2019-01-23T16:22:46.826Z,66.05
2019-01-23T16:25:16.514Z,66.43
2019-01-23T16:27:45.641Z,66.77
2019-01-23T16:30:19.948Z,66.73
2019-01-23T16:32:48.440Z,67.43
2019-01-23T16:35:16.970Z,67.42
2019-01-23T16:37:45.452Z,66.64
2019-01-23T16:40:13.942Z,65.33
2019-01-23T16:42:42.462Z,65.33
2019-01-23T16:45:16.467Z,66.96
2019-01-23T16:47:45.751Z,68.38
2019-01-23T16:50:17.000Z,66.58
2019-01-23T16:52:45.476Z,66.29
2019-01-23T16:55:13.959Z,65.87
2019-01-23T16:57:42.476Z,65.64
2019-01-23T17:00:13.771Z,65.26
2019-01-23T17:02:42.256Z,64.75
2019-01-23T17:05:19.314Z,68.03
2019-01-23T17:07:48.298Z,69.04
2019-01-23T17:10:19.242Z,67.95
2019-01-23T17:12:47.767Z,67.95
2019-01-23T17:15:16.309Z,66.52
2019-01-23T17:17:44.749Z,66.38
2019-01-23T17:20:21.958Z,65.63
2019-01-23T17:22:50.461Z,67.46
2019-01-23T17:25:18.958Z,66.32
2019-01-23T17:27:47.464Z,69.83
2019-01-23T17:30:17.565Z,67.80
2019-01-23T17:32:46.052Z,67.35
2019-01-23T17:35:17.656Z,68.32
2019-01-23T17:37:46.137Z,68.32
2019-01-23T17:40:17.196Z,67.36
2019-01-23T17:42:45.717Z,66.02
2019-01-23T17:45:23.170Z,66.64
2019-01-23T17:47:51.700Z,66.40
2019-01-23T17:50:21.882Z,66.11
2019-01-23T17:52:50.678Z,67.95
2019-01-23T17:55:30.340Z,67.16
2019-01-23T17:57:58.931Z,69.25
2019-01-23T18:00:31.339Z,69.82
2019-01-23T18:02:59.866Z,69.82
2019-01-23T18:05:29.913Z,68.21
2019-01-23T18:07:58.402Z,67.21
2019-01-23T18:10:27.831Z,66.29
2019-01-23T18:12:56.325Z,66.54
2019-01-23T18:15:39.092Z,65.13
2019-01-23T18:18:09.490Z,64.96
2019-01-23T18:20:37.983Z,67.08
2019-01-23T18:23:09.232Z,67.08
2019-01-23T18:25:40.583Z,67.22
2019-01-23T18:28:09.069Z,66.73
2019-01-23T18:30:52.477Z,65.55
2019-01-23T18:33:29.884Z,66.51
2019-01-23T18:36:20.770Z,66.41
2019-01-23T18:38:55.192Z,66.41
2019-01-23T18:41:49.312Z,66.60
2019-01-23T18:44:32.918Z,65.69
2019-01-23T18:47:10.374Z,65.69
2019-01-23T18:49:56.598Z,65.90
2019-01-23T18:52:25.130Z,64.62
2019-01-23T18:54:55.195Z,64.62
2019-01-23T18:57:28.943Z,64.17
2019-01-23T18:59:59.336Z,64.11
2019-01-23T19:02:29.260Z,63.97
2019-01-23T19:04:57.739Z,64.50
2019-01-23T19:07:26.890Z,64.25
2019-01-23T19:09:55.338Z,66.18
2019-01-23T19:12:23.842Z,64.78
2019-01-23T19:14:52.367Z,63.79
2019-01-23T19:17:20.858Z,63.79
2019-01-23T19:19:49.348Z,64.54
2019-01-23T19:22:17.883Z,64.54
2019-01-23T19:24:46.387Z,64.30
2019-01-23T19:27:14.876Z,64.30
2019-01-23T19:29:43.416Z,64.03
2019-01-23T19:34:40.413Z,63.93
2019-01-23T19:37:10.519Z,64.64
2019-01-23T19:39:39.015Z,64.64
2019-01-23T19:42:07.503Z,64.23
2019-01-23T19:44:36.043Z,64.79
2019-01-23T19:47:04.537Z,65.94
2019-01-23T19:49:33.050Z,67.12
2019-01-23T19:52:03.191Z,66.19
2019-01-23T19:54:31.678Z,67.99
2019-01-23T19:57:00.173Z,67.99
2019-01-23T19:59:30.292Z,68.50
2019-01-23T20:01:58.778Z,68.75
2019-01-23T20:04:27.278Z,67.64
2019-01-23T20:06:55.802Z,67.64
2019-01-23T20:09:24.298Z,66.19
2019-01-23T20:11:52.803Z,66.19
2019-01-23T20:14:21.470Z,65.35
2019-01-23T20:16:50.109Z,68.26
2019-01-23T20:19:18.572Z,69.87
2019-01-23T20:21:47.113Z,68.95
2019-01-23T20:24:15.616Z,67.55
2019-01-23T20:26:47.184Z,67.97
2019-01-23T20:29:15.715Z,67.97
2019-01-23T20:31:44.215Z,68.11
2019-01-23T20:34:12.707Z,68.11
2019-01-23T20:36:41.232Z,67.82
2019-01-23T20:39:10.521Z,69.30
2019-01-23T20:41:39.012Z,69.30
2019-01-23T20:44:07.547Z,67.59
2019-01-23T20:46:36.035Z,68.68
2019-01-23T20:49:04.523Z,66.62
2019-01-23T20:51:33.072Z,67.92
2019-01-23T20:54:01.564Z,67.02
2019-01-23T20:56:30.051Z,67.02
2019-01-23T20:58:58.592Z,67.33
2019-01-23T21:01:27.084Z,65.78
2019-01-23T21:03:55.564Z,65.18
2019-01-23T21:06:24.084Z,65.18
2019-01-23T21:08:52.557Z,64.97
2019-01-23T21:11:23.822Z,64.83
2019-01-23T21:13:54.526Z,64.57
2019-01-23T21:16:23.008Z,64.34
2019-01-23T21:18:51.496Z,64.31
2019-01-23T21:21:20.024Z,64.18
2019-01-23T21:23:48.504Z,64.08
2019-01-23T21:26:16.990Z,64.34
2019-01-23T21:28:45.541Z,64.26
2019-01-23T21:31:14.023Z,64.11
2019-01-23T21:33:42.511Z,63.81
2019-01-23T21:36:11.044Z,63.81
2019-01-23T21:38:40.680Z,66.61
2019-01-23T21:41:09.163Z,66.61
2019-01-23T21:43:37.688Z,65.52
2019-01-23T21:46:06.167Z,64.92
2019-01-23T21:48:34.665Z,65.09
2019-01-23T21:51:03.198Z,64.52
2019-01-23T21:53:31.695Z,65.09
2019-01-23T21:56:00.191Z,66.19
2019-01-23T21:58:28.588Z,65.39
2019-01-23T22:00:57.077Z,65.39
2019-01-23T22:03:25.569Z,65.21
2019-01-23T22:05:53.893Z,64.79
2019-01-23T22:08:22.177Z,64.51
2019-01-23T22:10:50.663Z,65.14
2019-01-23T22:13:19.051Z,67.89
2019-01-23T22:15:47.545Z,67.89
2019-01-23T22:18:16.043Z,68.76
2019-01-23T22:20:44.588Z,67.71
2019-01-23T22:23:12.939Z,65.78
2019-01-23T22:25:41.223Z,65.78
2019-01-23T22:28:09.541Z,65.07
2019-01-23T22:30:37.893Z,65.07
2019-01-23T22:33:06.170Z,65.00
2019-01-23T22:35:35.388Z,65.08
2019-01-23T22:38:03.666Z,64.62
2019-01-23T22:40:32.016Z,63.69
2019-01-23T22:43:00.327Z,64.25
2019-01-23T22:45:28.606Z,64.25
2019-01-23T22:47:56.898Z,64.70
2019-01-23T22:50:28.576Z,64.70
2019-01-23T22:52:56.834Z,63.96
2019-01-23T22:55:25.110Z,65.65
2019-01-23T22:57:53.672Z,65.19
2019-01-23T23:00:35.594Z,64.28
2019-01-23T23:03:04.013Z,64.28
2019-01-23T23:05:32.355Z,64.40
2019-01-23T23:08:02.693Z,66.63
2019-01-23T23:10:30.998Z,68.74
2019-01-23T23:12:59.282Z,66.80
2019-01-23T23:15:27.631Z,65.68
2019-01-23T23:17:55.953Z,64.82
2019-01-23T23:20:24.234Z,64.82
2019-01-23T23:22:52.588Z,64.72
2019-01-23T23:25:20.896Z,64.85
2019-01-23T23:27:49.172Z,64.81
2019-01-23T23:30:22.659Z,64.90
2019-01-23T23:32:50.965Z,64.84
2019-01-23T23:35:19.257Z,64.72
2019-01-23T23:37:47.550Z,64.45
2019-01-23T23:40:16.111Z,65.93
2019-01-23T23:42:44.391Z,64.57
2019-01-23T23:45:17.071Z,64.15
2019-01-23T23:47:45.380Z,64.15
2019-01-23T23:50:14.998Z,66.30
2019-01-23T23:52:43.272Z,66.98
2019-01-23T23:55:12.844Z,67.24
2019-01-23T23:57:41.118Z,67.24
